sensor_id;sensor_type;location;lat;lon;timestamp;temperature;humidity
11089;DHT22;5598;48.648;8.908;2023-05-07T00:01:40;12.60;99.90
11089;DHT22;5598;48.648;8.908;2023-05-07T00:04:07;12.80;99.90
11089;DHT22;5598;48.648;8.908;2023-05-07T00:06:33;12.80;99.90
11089;DHT22;5598;48.648;8.908;2023-05-07T00:09:01;12.70;99.90
11089;DHT22;5598;48.648;8.908;2023-05-07T00:11:28;12.70;99.90
11089;DHT22;5598;48.648;8.908;2023-05-07T00:13:55;12.70;99.90
11089;DHT22;5598;48.648;8.908;2023-05-07T00:16:22;12.60;99.90
11089;DHT22;5598;48.648;8.908;2023-05-07T00:18:50;12.50;99.90
11089;DHT22;5598;48.648;8.908;2023-05-07T00:21:17;12.40;99.90
11089;DHT22;5598;48.648;8.908;2023-05-07T00:23:44;12.40;99.90
11089;DHT22;5598;48.648;8.908;2023-05-07T00:26:11;12.50;99.90
11089;DHT22;5598;48.648;8.908;2023-05-07T00:28:37;12.50;99.90
11089;DHT22;5598;48.648;8.908;2023-05-07T00:31:04;12.60;99.90
11089;DHT22;5598;48.648;8.908;2023-05-07T00:33:31;12.60;99.90
11089;DHT22;5598;48.648;8.908;2023-05-07T00:35:59;12.60;99.90
11089;DHT22;5598;48.648;8.908;2023-05-07T00:38:27;12.50;99.90
11089;DHT22;5598;48.648;8.908;2023-05-07T00:40:54;12.40;99.90
11089;DHT22;5598;48.648;8.908;2023-05-07T00:43:20;12.40;99.90
11089;DHT22;5598;48.648;8.908;2023-05-07T00:45:47;12.40;99.90
11089;DHT22;5598;48.648;8.908;2023-05-07T00:48:14;12.40;99.90
11089;DHT22;5598;48.648;8.908;2023-05-07T00:50:41;12.40;99.90
11089;DHT22;5598;48.648;8.908;2023-05-07T00:53:09;12.30;99.90
11089;DHT22;5598;48.648;8.908;2023-05-07T00:55:36;12.30;99.90
11089;DHT22;5598;48.648;8.908;2023-05-07T00:58:04;12.30;99.90
11089;DHT22;5598;48.648;8.908;2023-05-07T01:00:31;12.30;99.90
11089;DHT22;5598;48.648;8.908;2023-05-07T01:02:58;12.40;99.90
11089;DHT22;5598;48.648;8.908;2023-05-07T01:05:26;12.40;99.90
11089;DHT22;5598;48.648;8.908;2023-05-07T01:07:55;12.50;99.90
11089;DHT22;5598;48.648;8.908;2023-05-07T01:10:25;12.50;99.90
11089;DHT22;5598;48.648;8.908;2023-05-07T01:12:52;12.50;99.90
11089;DHT22;5598;48.648;8.908;2023-05-07T01:15:20;12.50;99.90
11089;DHT22;5598;48.648;8.908;2023-05-07T01:17:47;12.40;99.90
11089;DHT22;5598;48.648;8.908;2023-05-07T01:20:13;12.30;99.90
11089;DHT22;5598;48.648;8.908;2023-05-07T01:22:43;12.30;99.90
11089;DHT22;5598;48.648;8.908;2023-05-07T01:25:10;12.40;99.90
11089;DHT22;5598;48.648;8.908;2023-05-07T01:27:37;12.40;99.90
11089;DHT22;5598;48.648;8.908;2023-05-07T01:30:04;12.30;99.90
11089;DHT22;5598;48.648;8.908;2023-05-07T01:32:35;12.30;99.90
11089;DHT22;5598;48.648;8.908;2023-05-07T01:35:07;12.20;99.90
11089;DHT22;5598;48.648;8.908;2023-05-07T01:37:34;12.10;99.90
11089;DHT22;5598;48.648;8.908;2023-05-07T01:40:03;12.10;99.90
11089;DHT22;5598;48.648;8.908;2023-05-07T01:42:33;12.10;99.90
11089;DHT22;5598;48.648;8.908;2023-05-07T01:45:00;12.10;99.90
11089;DHT22;5598;48.648;8.908;2023-05-07T01:47:26;12.10;99.90
11089;DHT22;5598;48.648;8.908;2023-05-07T01:49:54;12.20;99.90
11089;DHT22;5598;48.648;8.908;2023-05-07T01:52:22;12.30;99.90
11089;DHT22;5598;48.648;8.908;2023-05-07T01:54:50;12.20;99.90
11089;DHT22;5598;48.648;8.908;2023-05-07T01:57:18;12.10;99.90
11089;DHT22;5598;48.648;8.908;2023-05-07T01:59:44;12.10;99.90
11089;DHT22;5598;48.648;8.908;2023-05-07T02:02:11;12.00;99.90
11089;DHT22;5598;48.648;8.908;2023-05-07T02:04:38;11.90;99.90
11089;DHT22;5598;48.648;8.908;2023-05-07T02:07:05;11.90;99.90
11089;DHT22;5598;48.648;8.908;2023-05-07T02:09:31;11.80;99.90
11089;DHT22;5598;48.648;8.908;2023-05-07T02:11:58;11.80;99.90
11089;DHT22;5598;48.648;8.908;2023-05-07T02:14:26;11.70;99.90
11089;DHT22;5598;48.648;8.908;2023-05-07T02:16:53;11.70;99.90
11089;DHT22;5598;48.648;8.908;2023-05-07T02:19:20;11.70;99.90
11089;DHT22;5598;48.648;8.908;2023-05-07T02:21:47;11.60;99.90
11089;DHT22;5598;48.648;8.908;2023-05-07T02:24:13;11.50;99.90
11089;DHT22;5598;48.648;8.908;2023-05-07T02:26:40;11.50;99.90
11089;DHT22;5598;48.648;8.908;2023-05-07T02:29:07;11.50;99.90
11089;DHT22;5598;48.648;8.908;2023-05-07T02:31:35;11.40;99.90
11089;DHT22;5598;48.648;8.908;2023-05-07T02:34:02;11.40;99.90
11089;DHT22;5598;48.648;8.908;2023-05-07T02:36:29;11.40;99.90
11089;DHT22;5598;48.648;8.908;2023-05-07T02:38:56;11.40;99.90
11089;DHT22;5598;48.648;8.908;2023-05-07T02:41:23;11.50;99.90
11089;DHT22;5598;48.648;8.908;2023-05-07T02:43:49;11.60;99.90
11089;DHT22;5598;48.648;8.908;2023-05-07T02:46:16;11.60;99.90
11089;DHT22;5598;48.648;8.908;2023-05-07T02:48:44;11.60;99.90
11089;DHT22;5598;48.648;8.908;2023-05-07T02:51:11;11.60;99.90
11089;DHT22;5598;48.648;8.908;2023-05-07T02:53:38;11.50;99.90
11089;DHT22;5598;48.648;8.908;2023-05-07T02:56:05;11.50;99.90
11089;DHT22;5598;48.648;8.908;2023-05-07T02:58:32;11.40;99.90
11089;DHT22;5598;48.648;8.908;2023-05-07T03:00:59;11.30;99.90
11089;DHT22;5598;48.648;8.908;2023-05-07T03:03:26;11.20;99.90
11089;DHT22;5598;48.648;8.908;2023-05-07T03:05:54;11.00;99.90
11089;DHT22;5598;48.648;8.908;2023-05-07T03:08:21;11.00;99.90
11089;DHT22;5598;48.648;8.908;2023-05-07T03:10:48;10.90;99.90
11089;DHT22;5598;48.648;8.908;2023-05-07T03:13:14;10.90;99.90
11089;DHT22;5598;48.648;8.908;2023-05-07T03:15:41;10.80;99.90
11089;DHT22;5598;48.648;8.908;2023-05-07T03:18:08;10.80;99.90
11089;DHT22;5598;48.648;8.908;2023-05-07T03:20:35;10.80;99.90
11089;DHT22;5598;48.648;8.908;2023-05-07T03:23:04;10.90;99.90
11089;DHT22;5598;48.648;8.908;2023-05-07T03:25:32;10.90;99.90
11089;DHT22;5598;48.648;8.908;2023-05-07T03:27:59;10.90;99.90
11089;DHT22;5598;48.648;8.908;2023-05-07T03:30:25;11.00;99.90
11089;DHT22;5598;48.648;8.908;2023-05-07T03:32:52;10.90;99.90
11089;DHT22;5598;48.648;8.908;2023-05-07T03:35:19;10.90;99.90
11089;DHT22;5598;48.648;8.908;2023-05-07T03:37:46;10.80;99.90
11089;DHT22;5598;48.648;8.908;2023-05-07T03:40:14;10.70;99.90
11089;DHT22;5598;48.648;8.908;2023-05-07T03:42:41;10.60;99.90
11089;DHT22;5598;48.648;8.908;2023-05-07T03:45:08;10.60;99.90
11089;DHT22;5598;48.648;8.908;2023-05-07T03:47:35;10.60;99.90
11089;DHT22;5598;48.648;8.908;2023-05-07T03:50:02;10.60;99.90
11089;DHT22;5598;48.648;8.908;2023-05-07T03:52:29;10.60;99.90
11089;DHT22;5598;48.648;8.908;2023-05-07T03:54:56;10.60;99.90
11089;DHT22;5598;48.648;8.908;2023-05-07T03:57:24;10.70;99.90
11089;DHT22;5598;48.648;8.908;2023-05-07T03:59:51;10.80;99.90
11089;DHT22;5598;48.648;8.908;2023-05-07T04:02:17;10.80;99.90
11089;DHT22;5598;48.648;8.908;2023-05-07T04:04:44;10.70;99.90
11089;DHT22;5598;48.648;8.908;2023-05-07T04:07:11;10.70;99.90
11089;DHT22;5598;48.648;8.908;2023-05-07T04:09:38;10.70;99.90
11089;DHT22;5598;48.648;8.908;2023-05-07T04:12:05;10.70;99.90
11089;DHT22;5598;48.648;8.908;2023-05-07T04:14:33;10.80;99.90
11089;DHT22;5598;48.648;8.908;2023-05-07T04:17:00;10.80;99.90
11089;DHT22;5598;48.648;8.908;2023-05-07T04:19:28;10.60;99.90
11089;DHT22;5598;48.648;8.908;2023-05-07T04:21:54;10.50;99.90
11089;DHT22;5598;48.648;8.908;2023-05-07T04:24:21;10.50;99.90
11089;DHT22;5598;48.648;8.908;2023-05-07T04:26:48;10.40;99.90
11089;DHT22;5598;48.648;8.908;2023-05-07T04:29:16;10.30;99.90
11089;DHT22;5598;48.648;8.908;2023-05-07T04:31:44;10.20;99.90
11089;DHT22;5598;48.648;8.908;2023-05-07T04:34:11;10.20;99.90
11089;DHT22;5598;48.648;8.908;2023-05-07T04:36:38;10.20;99.90
11089;DHT22;5598;48.648;8.908;2023-05-07T04:39:05;10.20;99.90
11089;DHT22;5598;48.648;8.908;2023-05-07T04:41:32;10.30;99.90
11089;DHT22;5598;48.648;8.908;2023-05-07T04:43:58;10.30;99.90
11089;DHT22;5598;48.648;8.908;2023-05-07T04:46:25;10.30;99.90
11089;DHT22;5598;48.648;8.908;2023-05-07T04:48:53;10.50;99.90
11089;DHT22;5598;48.648;8.908;2023-05-07T04:51:20;10.60;99.90
11089;DHT22;5598;48.648;8.908;2023-05-07T04:53:48;10.60;99.90
11089;DHT22;5598;48.648;8.908;2023-05-07T04:56:14;10.60;99.90
11089;DHT22;5598;48.648;8.908;2023-05-07T04:58:41;10.70;99.90
11089;DHT22;5598;48.648;8.908;2023-05-07T05:01:08;10.70;99.90
11089;DHT22;5598;48.648;8.908;2023-05-07T05:03:35;10.70;99.90
11089;DHT22;5598;48.648;8.908;2023-05-07T05:06:03;10.70;99.90
11089;DHT22;5598;48.648;8.908;2023-05-07T05:08:30;10.80;99.90
11089;DHT22;5598;48.648;8.908;2023-05-07T05:10:57;10.80;99.90
11089;DHT22;5598;48.648;8.908;2023-05-07T05:13:23;10.90;99.90
11089;DHT22;5598;48.648;8.908;2023-05-07T05:15:50;11.00;99.90
11089;DHT22;5598;48.648;8.908;2023-05-07T05:18:17;11.10;99.90
11089;DHT22;5598;48.648;8.908;2023-05-07T05:20:44;11.30;99.90
11089;DHT22;5598;48.648;8.908;2023-05-07T05:23:12;11.40;99.90
11089;DHT22;5598;48.648;8.908;2023-05-07T05:25:39;11.60;99.90
11089;DHT22;5598;48.648;8.908;2023-05-07T05:28:05;11.70;99.90
11089;DHT22;5598;48.648;8.908;2023-05-07T05:30:32;11.80;99.90
11089;DHT22;5598;48.648;8.908;2023-05-07T05:32:59;11.80;99.90
11089;DHT22;5598;48.648;8.908;2023-05-07T05:35:26;11.90;99.90
11089;DHT22;5598;48.648;8.908;2023-05-07T05:37:53;12.00;99.90
11089;DHT22;5598;48.648;8.908;2023-05-07T05:40:21;12.00;99.90
11089;DHT22;5598;48.648;8.908;2023-05-07T05:42:48;12.20;99.90
11089;DHT22;5598;48.648;8.908;2023-05-07T05:45:15;12.40;99.90
11089;DHT22;5598;48.648;8.908;2023-05-07T05:47:41;12.60;99.90
11089;DHT22;5598;48.648;8.908;2023-05-07T05:50:09;12.80;99.90
11089;DHT22;5598;48.648;8.908;2023-05-07T05:52:35;13.00;99.90
11089;DHT22;5598;48.648;8.908;2023-05-07T05:55:03;13.20;99.90
11089;DHT22;5598;48.648;8.908;2023-05-07T05:57:31;13.30;99.90
11089;DHT22;5598;48.648;8.908;2023-05-07T05:59:59;13.40;99.90
11089;DHT22;5598;48.648;8.908;2023-05-07T06:02:26;13.40;99.90
11089;DHT22;5598;48.648;8.908;2023-05-07T06:04:53;13.60;99.90
11089;DHT22;5598;48.648;8.908;2023-05-07T06:07:20;13.80;99.90
11089;DHT22;5598;48.648;8.908;2023-05-07T06:09:47;13.90;99.90
11089;DHT22;5598;48.648;8.908;2023-05-07T06:12:13;13.90;99.90
11089;DHT22;5598;48.648;8.908;2023-05-07T06:14:44;14.10;99.90
11089;DHT22;5598;48.648;8.908;2023-05-07T06:17:10;14.30;99.90
11089;DHT22;5598;48.648;8.908;2023-05-07T06:19:37;14.40;99.90
11089;DHT22;5598;48.648;8.908;2023-05-07T06:22:04;14.40;99.90
11089;DHT22;5598;48.648;8.908;2023-05-07T06:24:31;14.60;99.90
11089;DHT22;5598;48.648;8.908;2023-05-07T06:26:57;14.80;99.90
11089;DHT22;5598;48.648;8.908;2023-05-07T06:29:24;15.00;99.90
11089;DHT22;5598;48.648;8.908;2023-05-07T06:31:53;15.10;99.90
11089;DHT22;5598;48.648;8.908;2023-05-07T06:34:20;15.40;99.90
11089;DHT22;5598;48.648;8.908;2023-05-07T06:36:47;15.50;99.90
11089;DHT22;5598;48.648;8.908;2023-05-07T06:39:14;15.70;99.90
11089;DHT22;5598;48.648;8.908;2023-05-07T06:41:41;15.80;99.90
11089;DHT22;5598;48.648;8.908;2023-05-07T06:44:07;16.00;99.90
11089;DHT22;5598;48.648;8.908;2023-05-07T06:46:34;16.10;99.90
11089;DHT22;5598;48.648;8.908;2023-05-07T06:49:02;16.20;99.90
11089;DHT22;5598;48.648;8.908;2023-05-07T06:51:29;16.30;99.90
11089;DHT22;5598;48.648;8.908;2023-05-07T06:53:56;16.40;99.90
11089;DHT22;5598;48.648;8.908;2023-05-07T06:56:22;16.40;99.90
11089;DHT22;5598;48.648;8.908;2023-05-07T06:58:50;16.50;99.90
11089;DHT22;5598;48.648;8.908;2023-05-07T07:01:17;16.60;99.90
11089;DHT22;5598;48.648;8.908;2023-05-07T07:03:44;16.80;99.90
11089;DHT22;5598;48.648;8.908;2023-05-07T07:06:12;17.00;99.90
11089;DHT22;5598;48.648;8.908;2023-05-07T07:08:39;17.00;99.90
11089;DHT22;5598;48.648;8.908;2023-05-07T07:11:06;17.20;99.90
11089;DHT22;5598;48.648;8.908;2023-05-07T07:13:33;17.40;99.90
11089;DHT22;5598;48.648;8.908;2023-05-07T07:15:59;17.50;99.90
11089;DHT22;5598;48.648;8.908;2023-05-07T07:18:26;17.60;99.90
11089;DHT22;5598;48.648;8.908;2023-05-07T07:20:53;17.90;99.10
11089;DHT22;5598;48.648;8.908;2023-05-07T07:23:21;18.10;99.00
11089;DHT22;5598;48.648;8.908;2023-05-07T07:25:48;18.10;98.80
11089;DHT22;5598;48.648;8.908;2023-05-07T07:28:15;18.20;98.80
11089;DHT22;5598;48.648;8.908;2023-05-07T07:30:42;18.00;99.50
11089;DHT22;5598;48.648;8.908;2023-05-07T07:33:09;17.70;99.80
11089;DHT22;5598;48.648;8.908;2023-05-07T07:35:36;17.70;99.90
11089;DHT22;5598;48.648;8.908;2023-05-07T07:38:03;17.80;99.90
11089;DHT22;5598;48.648;8.908;2023-05-07T07:40:31;17.90;99.10
11089;DHT22;5598;48.648;8.908;2023-05-07T07:42:58;18.00;98.80
11089;DHT22;5598;48.648;8.908;2023-05-07T07:45:26;18.00;98.50
11089;DHT22;5598;48.648;8.908;2023-05-07T07:47:53;18.10;98.30
11089;DHT22;5598;48.648;8.908;2023-05-07T07:50:20;18.40;97.70
11089;DHT22;5598;48.648;8.908;2023-05-07T07:52:48;18.60;97.80
11089;DHT22;5598;48.648;8.908;2023-05-07T07:55:15;18.90;97.40
11089;DHT22;5598;48.648;8.908;2023-05-07T07:57:44;19.80;97.20
11089;DHT22;5598;48.648;8.908;2023-05-07T08:00:12;20.60;95.40
11089;DHT22;5598;48.648;8.908;2023-05-07T08:02:39;21.60;93.30
11089;DHT22;5598;48.648;8.908;2023-05-07T08:05:06;21.90;92.20
11089;DHT22;5598;48.648;8.908;2023-05-07T08:07:33;22.00;91.90
11089;DHT22;5598;48.648;8.908;2023-05-07T08:10:00;22.10;92.10
11089;DHT22;5598;48.648;8.908;2023-05-07T08:12:27;22.40;92.00
11089;DHT22;5598;48.648;8.908;2023-05-07T08:14:55;22.70;91.00
11089;DHT22;5598;48.648;8.908;2023-05-07T08:17:22;22.40;90.30
11089;DHT22;5598;48.648;8.908;2023-05-07T08:19:49;22.30;90.40
11089;DHT22;5598;48.648;8.908;2023-05-07T08:22:16;22.10;91.00
11089;DHT22;5598;48.648;8.908;2023-05-07T08:24:43;22.30;90.90
11089;DHT22;5598;48.648;8.908;2023-05-07T08:27:11;22.60;90.60
11089;DHT22;5598;48.648;8.908;2023-05-07T08:29:38;22.70;89.90
11089;DHT22;5598;48.648;8.908;2023-05-07T08:32:06;22.90;87.80
11089;DHT22;5598;48.648;8.908;2023-05-07T08:34:33;22.80;86.00
11089;DHT22;5598;48.648;8.908;2023-05-07T08:36:59;22.80;88.40
11089;DHT22;5598;48.648;8.908;2023-05-07T08:39:26;22.60;86.20
11089;DHT22;5598;48.648;8.908;2023-05-07T08:41:55;22.50;89.30
11089;DHT22;5598;48.648;8.908;2023-05-07T08:44:22;23.10;90.80
11089;DHT22;5598;48.648;8.908;2023-05-07T08:46:52;24.10;87.80
11089;DHT22;5598;48.648;8.908;2023-05-07T08:49:21;25.30;84.60
11089;DHT22;5598;48.648;8.908;2023-05-07T08:51:48;26.20;79.90
11089;DHT22;5598;48.648;8.908;2023-05-07T08:54:16;26.70;78.90
11089;DHT22;5598;48.648;8.908;2023-05-07T08:56:43;27.70;77.90
11089;DHT22;5598;48.648;8.908;2023-05-07T08:59:10;28.60;75.20
11089;DHT22;5598;48.648;8.908;2023-05-07T09:01:37;29.60;75.40
11089;DHT22;5598;48.648;8.908;2023-05-07T09:04:04;30.60;69.20
11089;DHT22;5598;48.648;8.908;2023-05-07T09:06:33;31.20;67.60
11089;DHT22;5598;48.648;8.908;2023-05-07T09:09:00;32.00;65.10
11089;DHT22;5598;48.648;8.908;2023-05-07T09:11:28;32.60;64.60
11089;DHT22;5598;48.648;8.908;2023-05-07T09:13:56;33.40;61.20
11089;DHT22;5598;48.648;8.908;2023-05-07T09:16:25;33.80;58.40
11089;DHT22;5598;48.648;8.908;2023-05-07T09:18:53;34.00;56.90
11089;DHT22;5598;48.648;8.908;2023-05-07T09:21:20;34.00;56.80
11089;DHT22;5598;48.648;8.908;2023-05-07T09:23:50;34.00;58.30
11089;DHT22;5598;48.648;8.908;2023-05-07T09:26:18;32.90;56.50
11089;DHT22;5598;48.648;8.908;2023-05-07T09:28:45;32.70;57.50
11089;DHT22;5598;48.648;8.908;2023-05-07T09:31:12;32.40;58.60
11089;DHT22;5598;48.648;8.908;2023-05-07T09:33:40;32.20;59.70
11089;DHT22;5598;48.648;8.908;2023-05-07T09:36:08;32.40;59.00
11089;DHT22;5598;48.648;8.908;2023-05-07T09:38:36;33.20;59.40
11089;DHT22;5598;48.648;8.908;2023-05-07T09:41:05;34.40;55.90
11089;DHT22;5598;48.648;8.908;2023-05-07T09:43:33;35.30;54.20
11089;DHT22;5598;48.648;8.908;2023-05-07T09:46:03;35.80;53.30
11089;DHT22;5598;48.648;8.908;2023-05-07T09:48:30;36.00;52.40
11089;DHT22;5598;48.648;8.908;2023-05-07T09:51:01;36.00;53.70
11089;DHT22;5598;48.648;8.908;2023-05-07T09:53:29;35.90;52.00
11089;DHT22;5598;48.648;8.908;2023-05-07T09:55:57;34.80;53.20
11089;DHT22;5598;48.648;8.908;2023-05-07T09:58:27;34.30;54.70
11089;DHT22;5598;48.648;8.908;2023-05-07T10:00:55;35.10;53.80
11089;DHT22;5598;48.648;8.908;2023-05-07T10:03:24;35.70;55.10
11089;DHT22;5598;48.648;8.908;2023-05-07T10:05:54;35.50;54.00
11089;DHT22;5598;48.648;8.908;2023-05-07T10:08:21;35.20;50.80
11089;DHT22;5598;48.648;8.908;2023-05-07T10:10:49;34.80;53.20
11089;DHT22;5598;48.648;8.908;2023-05-07T10:13:16;35.20;52.80
11089;DHT22;5598;48.648;8.908;2023-05-07T10:15:45;35.80;50.90
11089;DHT22;5598;48.648;8.908;2023-05-07T10:18:12;36.70;52.50
11089;DHT22;5598;48.648;8.908;2023-05-07T10:20:40;37.60;50.30
11089;DHT22;5598;48.648;8.908;2023-05-07T10:23:13;37.70;47.90
11089;DHT22;5598;48.648;8.908;2023-05-07T10:25:41;37.60;49.30
11089;DHT22;5598;48.648;8.908;2023-05-07T10:28:09;38.20;49.60
11089;DHT22;5598;48.648;8.908;2023-05-07T10:30:46;39.00;49.90
11089;DHT22;5598;48.648;8.908;2023-05-07T10:33:20;39.80;48.80
11089;DHT22;5598;48.648;8.908;2023-05-07T10:35:48;39.30;46.00
11089;DHT22;5598;48.648;8.908;2023-05-07T10:38:16;37.80;49.10
11089;DHT22;5598;48.648;8.908;2023-05-07T10:40:43;37.20;49.70
11089;DHT22;5598;48.648;8.908;2023-05-07T10:43:10;37.00;49.10
11089;DHT22;5598;48.648;8.908;2023-05-07T10:45:37;37.70;49.50
11089;DHT22;5598;48.648;8.908;2023-05-07T10:48:13;37.90;46.90
11089;DHT22;5598;48.648;8.908;2023-05-07T10:50:43;37.60;47.50
11089;DHT22;5598;48.648;8.908;2023-05-07T10:53:23;37.50;48.60
11089;DHT22;5598;48.648;8.908;2023-05-07T10:56:23;37.60;46.60
11089;DHT22;5598;48.648;8.908;2023-05-07T10:58:50;37.20;48.00
11089;DHT22;5598;48.648;8.908;2023-05-07T11:01:49;36.80;48.10
11089;DHT22;5598;48.648;8.908;2023-05-07T11:04:16;36.50;49.70
11089;DHT22;5598;48.648;8.908;2023-05-07T11:09:58;35.70;48.90
11089;DHT22;5598;48.648;8.908;2023-05-07T11:12:55;33.40;50.00
11089;DHT22;5598;48.648;8.908;2023-05-07T11:15:42;32.00;53.10
11089;DHT22;5598;48.648;8.908;2023-05-07T11:18:10;31.50;53.90
11089;DHT22;5598;48.648;8.908;2023-05-07T11:20:54;31.20;55.10
11089;DHT22;5598;48.648;8.908;2023-05-07T11:23:55;30.90;55.60
11089;DHT22;5598;48.648;8.908;2023-05-07T11:26:24;30.40;57.60
11089;DHT22;5598;48.648;8.908;2023-05-07T11:28:52;29.90;57.20
11089;DHT22;5598;48.648;8.908;2023-05-07T11:31:24;29.50;57.20
11089;DHT22;5598;48.648;8.908;2023-05-07T11:33:52;29.20;58.10
11089;DHT22;5598;48.648;8.908;2023-05-07T11:36:21;28.70;58.90
11089;DHT22;5598;48.648;8.908;2023-05-07T11:38:48;28.30;59.60
11089;DHT22;5598;48.648;8.908;2023-05-07T11:41:15;27.90;60.00
11089;DHT22;5598;48.648;8.908;2023-05-07T11:43:57;27.60;60.80
11089;DHT22;5598;48.648;8.908;2023-05-07T11:46:24;27.30;59.90
11089;DHT22;5598;48.648;8.908;2023-05-07T11:48:51;26.90;61.90
11089;DHT22;5598;48.648;8.908;2023-05-07T11:51:19;26.80;64.10
11089;DHT22;5598;48.648;8.908;2023-05-07T11:53:46;26.60;64.80
11089;DHT22;5598;48.648;8.908;2023-05-07T11:56:14;26.40;66.20
11089;DHT22;5598;48.648;8.908;2023-05-07T11:58:42;26.00;69.00
11089;DHT22;5598;48.648;8.908;2023-05-07T12:01:12;25.80;69.00
11089;DHT22;5598;48.648;8.908;2023-05-07T12:03:40;25.60;71.20
11089;DHT22;5598;48.648;8.908;2023-05-07T12:06:10;25.30;70.80
11089;DHT22;5598;48.648;8.908;2023-05-07T12:08:38;25.10;69.70
11089;DHT22;5598;48.648;8.908;2023-05-07T12:11:08;24.90;68.60
11089;DHT22;5598;48.648;8.908;2023-05-07T12:13:36;24.60;67.80
11089;DHT22;5598;48.648;8.908;2023-05-07T12:16:05;24.40;66.70
11089;DHT22;5598;48.648;8.908;2023-05-07T12:18:34;24.10;65.30
11089;DHT22;5598;48.648;8.908;2023-05-07T12:21:02;23.90;66.50
11089;DHT22;5598;48.648;8.908;2023-05-07T12:23:29;23.60;66.60
11089;DHT22;5598;48.648;8.908;2023-05-07T12:25:56;23.30;68.10
11089;DHT22;5598;48.648;8.908;2023-05-07T12:28:23;23.20;70.20
11089;DHT22;5598;48.648;8.908;2023-05-07T12:30:50;22.90;71.80
11089;DHT22;5598;48.648;8.908;2023-05-07T12:33:18;22.60;73.00
11089;DHT22;5598;48.648;8.908;2023-05-07T12:35:48;22.30;74.00
11089;DHT22;5598;48.648;8.908;2023-05-07T12:38:16;22.10;74.30
11089;DHT22;5598;48.648;8.908;2023-05-07T12:40:45;21.90;75.00
11089;DHT22;5598;48.648;8.908;2023-05-07T12:43:16;21.80;76.20
11089;DHT22;5598;48.648;8.908;2023-05-07T12:45:44;21.40;77.40
11089;DHT22;5598;48.648;8.908;2023-05-07T12:48:11;20.90;78.50
11089;DHT22;5598;48.648;8.908;2023-05-07T12:50:39;20.60;76.80
11089;DHT22;5598;48.648;8.908;2023-05-07T12:53:08;20.50;77.50
11089;DHT22;5598;48.648;8.908;2023-05-07T12:55:43;20.40;79.00
11089;DHT22;5598;48.648;8.908;2023-05-07T12:58:17;20.10;78.70
11089;DHT22;5598;48.648;8.908;2023-05-07T13:00:47;19.80;79.40
11089;DHT22;5598;48.648;8.908;2023-05-07T13:03:21;19.50;81.10
11089;DHT22;5598;48.648;8.908;2023-05-07T13:05:49;19.20;87.70
11089;DHT22;5598;48.648;8.908;2023-05-07T13:08:25;18.70;90.80
11089;DHT22;5598;48.648;8.908;2023-05-07T13:10:52;18.20;93.30
11089;DHT22;5598;48.648;8.908;2023-05-07T13:13:19;17.90;98.30
11089;DHT22;5598;48.648;8.908;2023-05-07T13:15:46;17.70;99.90
11089;DHT22;5598;48.648;8.908;2023-05-07T13:18:13;17.30;99.90
11089;DHT22;5598;48.648;8.908;2023-05-07T13:20:40;17.20;99.90
11089;DHT22;5598;48.648;8.908;2023-05-07T13:23:07;16.80;99.90
11089;DHT22;5598;48.648;8.908;2023-05-07T13:25:35;16.40;99.90
11089;DHT22;5598;48.648;8.908;2023-05-07T13:28:02;16.30;99.90
11089;DHT22;5598;48.648;8.908;2023-05-07T13:30:30;15.90;99.90
11089;DHT22;5598;48.648;8.908;2023-05-07T13:32:56;15.70;99.90
11089;DHT22;5598;48.648;8.908;2023-05-07T13:35:23;15.70;99.90
11089;DHT22;5598;48.648;8.908;2023-05-07T13:37:50;15.50;99.90
11089;DHT22;5598;48.648;8.908;2023-05-07T13:40:17;15.40;99.90
11089;DHT22;5598;48.648;8.908;2023-05-07T13:42:45;15.30;99.90
11089;DHT22;5598;48.648;8.908;2023-05-07T13:45:13;15.10;99.90
11089;DHT22;5598;48.648;8.908;2023-05-07T13:47:40;14.90;99.90
11089;DHT22;5598;48.648;8.908;2023-05-07T13:50:08;14.70;99.90
11089;DHT22;5598;48.648;8.908;2023-05-07T13:52:35;14.60;99.90
11089;DHT22;5598;48.648;8.908;2023-05-07T13:55:02;14.60;99.90
11089;DHT22;5598;48.648;8.908;2023-05-07T13:57:29;14.60;99.90
11089;DHT22;5598;48.648;8.908;2023-05-07T13:59:57;14.40;99.90
11089;DHT22;5598;48.648;8.908;2023-05-07T14:02:24;14.50;99.90
11089;DHT22;5598;48.648;8.908;2023-05-07T14:04:51;14.50;99.90
11089;DHT22;5598;48.648;8.908;2023-05-07T14:07:17;14.50;99.90
11089;DHT22;5598;48.648;8.908;2023-05-07T14:09:45;14.60;99.90
11089;DHT22;5598;48.648;8.908;2023-05-07T14:12:12;14.40;99.90
11089;DHT22;5598;48.648;8.908;2023-05-07T14:14:39;14.50;99.90
11089;DHT22;5598;48.648;8.908;2023-05-07T14:17:07;14.50;99.90
11089;DHT22;5598;48.648;8.908;2023-05-07T14:19:34;14.50;99.90
11089;DHT22;5598;48.648;8.908;2023-05-07T14:22:01;14.60;99.90
11089;DHT22;5598;48.648;8.908;2023-05-07T14:24:28;14.80;99.90
11089;DHT22;5598;48.648;8.908;2023-05-07T14:26:54;15.00;99.90
11089;DHT22;5598;48.648;8.908;2023-05-07T14:29:21;15.10;99.90
11089;DHT22;5598;48.648;8.908;2023-05-07T14:31:48;15.20;99.90
11089;DHT22;5598;48.648;8.908;2023-05-07T14:34:16;15.20;99.90
11089;DHT22;5598;48.648;8.908;2023-05-07T14:36:43;15.30;99.90
11089;DHT22;5598;48.648;8.908;2023-05-07T14:39:10;15.50;99.90
11089;DHT22;5598;48.648;8.908;2023-05-07T14:41:36;15.60;99.90
11089;DHT22;5598;48.648;8.908;2023-05-07T14:44:03;15.70;99.90
11089;DHT22;5598;48.648;8.908;2023-05-07T14:46:30;15.70;99.90
11089;DHT22;5598;48.648;8.908;2023-05-07T14:48:57;15.80;99.90
11089;DHT22;5598;48.648;8.908;2023-05-07T14:51:25;15.80;99.90
11089;DHT22;5598;48.648;8.908;2023-05-07T14:53:53;15.80;99.90
11089;DHT22;5598;48.648;8.908;2023-05-07T14:56:20;15.80;99.90
11089;DHT22;5598;48.648;8.908;2023-05-07T14:58:48;15.90;99.90
11089;DHT22;5598;48.648;8.908;2023-05-07T15:01:14;15.90;99.90
11089;DHT22;5598;48.648;8.908;2023-05-07T15:03:41;16.10;99.90
11089;DHT22;5598;48.648;8.908;2023-05-07T15:06:08;16.00;99.90
11089;DHT22;5598;48.648;8.908;2023-05-07T15:08:36;16.10;99.90
11089;DHT22;5598;48.648;8.908;2023-05-07T15:11:03;16.10;99.90
11089;DHT22;5598;48.648;8.908;2023-05-07T15:13:30;16.20;99.90
11089;DHT22;5598;48.648;8.908;2023-05-07T15:15:56;16.30;99.90
11089;DHT22;5598;48.648;8.908;2023-05-07T15:18:23;16.40;99.90
11089;DHT22;5598;48.648;8.908;2023-05-07T15:20:50;16.50;99.90
11089;DHT22;5598;48.648;8.908;2023-05-07T15:23:17;16.60;99.90
11089;DHT22;5598;48.648;8.908;2023-05-07T15:25:45;16.60;99.90
11089;DHT22;5598;48.648;8.908;2023-05-07T15:28:12;16.70;99.90
11089;DHT22;5598;48.648;8.908;2023-05-07T15:30:38;16.80;99.90
11089;DHT22;5598;48.648;8.908;2023-05-07T15:33:05;16.80;99.90
11089;DHT22;5598;48.648;8.908;2023-05-07T15:35:32;17.00;99.90
11089;DHT22;5598;48.648;8.908;2023-05-07T15:37:59;17.10;99.90
11089;DHT22;5598;48.648;8.908;2023-05-07T15:40:26;16.80;99.90
11089;DHT22;5598;48.648;8.908;2023-05-07T15:42:55;16.90;99.90
11089;DHT22;5598;48.648;8.908;2023-05-07T15:45:23;17.10;99.90
11089;DHT22;5598;48.648;8.908;2023-05-07T15:47:50;17.10;99.90
11089;DHT22;5598;48.648;8.908;2023-05-07T15:50:17;17.10;99.90
11089;DHT22;5598;48.648;8.908;2023-05-07T15:52:44;17.20;99.90